sensor_id;sensor_type;location;lat;lon;timestamp;pressure;altitude;pressure_sealevel;temperature;humidity
55757;BME280;41676;44.610;44.078;2023-02-16T00:01:55;100670.09;;;-2.96;85.80
55757;BME280;41676;44.610;44.078;2023-02-16T00:06:57;100681.97;;;-2.91;86.15
55757;BME280;41676;44.610;44.078;2023-02-16T00:12:20;100676.88;;;-3.11;86.44
55757;BME280;41676;44.610;44.078;2023-02-16T00:17:39;100693.31;;;-3.30;86.32
55757;BME280;41676;44.610;44.078;2023-02-16T00:22:40;100719.72;;;-3.39;86.59
55757;BME280;41676;44.610;44.078;2023-02-16T00:27:40;100726.03;;;-3.45;86.81
55757;BME280;41676;44.610;44.078;2023-02-16T00:32:41;100742.97;;;-3.55;87.27
55757;BME280;41676;44.610;44.078;2023-02-16T00:37:43;100719.28;;;-3.68;87.48
55757;BME280;41676;44.610;44.078;2023-02-16T00:42:45;100720.19;;;-3.69;87.81
55757;BME280;41676;44.610;44.078;2023-02-16T00:47:48;100744.50;;;-3.51;87.71
55757;BME280;41676;44.610;44.078;2023-02-16T00:52:50;100700.03;;;-3.82;88.04
55757;BME280;41676;44.610;44.078;2023-02-16T00:58:25;100764.16;;;-3.45;89.23
55757;BME280;41676;44.610;44.078;2023-02-16T01:03:29;100775.34;;;-3.43;88.23
55757;BME280;41676;44.610;44.078;2023-02-16T01:08:30;100686.75;;;-3.95;87.61
55757;BME280;41676;44.610;44.078;2023-02-16T01:13:50;100783.78;;;-3.38;87.18
55757;BME280;41676;44.610;44.078;2023-02-16T01:18:52;100779.22;;;-3.53;86.83
55757;BME280;41676;44.610;44.078;2023-02-16T01:23:53;100783.81;;;-3.58;86.73
55757;BME280;41676;44.610;44.078;2023-02-16T01:28:54;100782.03;;;-3.58;86.75
55757;BME280;41676;44.610;44.078;2023-02-16T01:33:55;100619.41;;;-4.58;86.79
55757;BME280;41676;44.610;44.078;2023-02-16T01:38:56;100793.84;;;-3.51;86.19
55757;BME280;41676;44.610;44.078;2023-02-16T01:44:08;100805.53;;;-3.40;86.14
55757;BME280;41676;44.610;44.078;2023-02-16T01:49:15;100740.72;;;-3.83;85.68
55757;BME280;41676;44.610;44.078;2023-02-16T02:04:58;100797.72;;;-3.80;85.54
55757;BME280;41676;44.610;44.078;2023-02-16T02:10:44;100813.28;;;-3.80;85.03
55757;BME280;41676;44.610;44.078;2023-02-16T02:15:42;100837.94;;;-3.70;85.17
55757;BME280;41676;44.610;44.078;2023-02-16T02:27:06;100784.38;;;-4.13;84.38
55757;BME280;41676;44.610;44.078;2023-02-16T02:32:20;100837.53;;;-3.81;84.28
55757;BME280;41676;44.610;44.078;2023-02-16T02:42:57;100781.03;;;-4.15;83.67
55757;BME280;41676;44.610;44.078;2023-02-16T02:48:00;100817.50;;;-3.98;83.67
55757;BME280;41676;44.610;44.078;2023-02-16T02:53:12;100786.78;;;-4.08;83.49
55757;BME280;41676;44.610;44.078;2023-02-16T02:58:15;100669.03;;;-4.88;82.97
55757;BME280;41676;44.610;44.078;2023-02-16T03:03:40;100864.47;;;-3.63;83.12
55757;BME280;41676;44.610;44.078;2023-02-16T03:08:45;100868.31;;;-3.51;82.47
55757;BME280;41676;44.610;44.078;2023-02-16T03:13:57;100871.44;;;-3.43;82.08
55757;BME280;41676;44.610;44.078;2023-02-16T03:18:58;100847.41;;;-3.69;81.98
55757;BME280;41676;44.610;44.078;2023-02-16T03:24:25;100875.53;;;-3.58;81.33
55757;BME280;41676;44.610;44.078;2023-02-16T03:29:45;100784.63;;;-4.19;81.67
55757;BME280;41676;44.610;44.078;2023-02-16T03:34:48;100897.41;;;-3.63;81.63
55757;BME280;41676;44.610;44.078;2023-02-16T03:39:49;100882.72;;;-3.85;81.34
55757;BME280;41676;44.610;44.078;2023-02-16T03:45:08;100892.00;;;-4.01;81.60
55757;BME280;41676;44.610;44.078;2023-02-16T03:50:09;100816.53;;;-4.60;81.63
55757;BME280;41676;44.610;44.078;2023-02-16T03:55:10;100920.16;;;-4.13;81.54
55757;BME280;41676;44.610;44.078;2023-02-16T04:00:11;100917.19;;;-4.25;81.19
55757;BME280;41676;44.610;44.078;2023-02-16T04:05:12;100913.03;;;-4.51;81.16
55757;BME280;41676;44.610;44.078;2023-02-16T04:10:12;100949.13;;;-4.47;80.82
55757;BME280;41676;44.610;44.078;2023-02-16T04:15:17;100859.09;;;-5.12;80.69
55757;BME280;41676;44.610;44.078;2023-02-16T04:20:19;100944.66;;;-4.67;80.83
55757;BME280;41676;44.610;44.078;2023-02-16T04:25:21;100930.44;;;-4.78;81.25
55757;BME280;41676;44.610;44.078;2023-02-16T04:30:27;100950.72;;;-4.66;80.68
55757;BME280;41676;44.610;44.078;2023-02-16T04:35:29;100866.72;;;-5.33;80.67
55757;BME280;41676;44.610;44.078;2023-02-16T04:40:29;100976.50;;;-4.87;81.00
55757;BME280;41676;44.610;44.078;2023-02-16T04:45:30;100973.50;;;-4.99;81.00
55757;BME280;41676;44.610;44.078;2023-02-16T04:50:32;100973.03;;;-5.11;80.84
55757;BME280;41676;44.610;44.078;2023-02-16T04:55:33;100893.56;;;-5.60;81.01
55757;BME280;41676;44.610;44.078;2023-02-16T05:00:34;101006.53;;;-5.06;80.21
55757;BME280;41676;44.610;44.078;2023-02-16T05:05:35;100998.41;;;-4.95;80.33
55757;BME280;41676;44.610;44.078;2023-02-16T05:10:36;100999.31;;;-4.96;79.78
55757;BME280;41676;44.610;44.078;2023-02-16T05:15:37;101014.34;;;-4.81;79.67
55757;BME280;41676;44.610;44.078;2023-02-16T05:20:38;100983.47;;;-4.89;79.42
55757;BME280;41676;44.610;44.078;2023-02-16T05:26:05;101009.56;;;-4.68;79.14
55757;BME280;41676;44.610;44.078;2023-02-16T05:31:05;100910.47;;;-5.23;78.62
55757;BME280;41676;44.610;44.078;2023-02-16T05:36:06;100995.91;;;-4.73;78.26
55757;BME280;41676;44.610;44.078;2023-02-16T05:41:07;101013.72;;;-4.41;77.69
55757;BME280;41676;44.610;44.078;2023-02-16T05:46:08;101012.81;;;-4.16;77.23
55757;BME280;41676;44.610;44.078;2023-02-16T05:51:09;101019.22;;;-3.79;76.38
55757;BME280;41676;44.610;44.078;2023-02-16T05:56:10;101007.31;;;-3.41;75.49
55757;BME280;41676;44.610;44.078;2023-02-16T06:01:11;100987.97;;;-2.93;74.56
55757;BME280;41676;44.610;44.078;2023-02-16T06:06:12;100978.53;;;-2.37;73.14
55757;BME280;41676;44.610;44.078;2023-02-16T06:11:14;101006.13;;;-1.59;72.98
55757;BME280;41676;44.610;44.078;2023-02-16T06:16:34;101024.34;;;-1.05;71.45
55757;BME280;41676;44.610;44.078;2023-02-16T06:21:36;100971.44;;;-1.42;70.91
55757;BME280;41676;44.610;44.078;2023-02-16T06:26:37;101004.94;;;-1.52;71.01
55757;BME280;41676;44.610;44.078;2023-02-16T06:31:38;101009.22;;;-1.33;70.99
55757;BME280;41676;44.610;44.078;2023-02-16T06:36:38;100994.13;;;-1.09;69.94
55757;BME280;41676;44.610;44.078;2023-02-16T06:41:39;101013.22;;;-0.92;70.64
55757;BME280;41676;44.610;44.078;2023-02-16T06:46:42;100996.63;;;-0.73;70.01
55757;BME280;41676;44.610;44.078;2023-02-16T06:51:44;100811.66;;;-1.77;69.62
55757;BME280;41676;44.610;44.078;2023-02-16T06:56:45;101002.47;;;-0.52;69.37
55757;BME280;41676;44.610;44.078;2023-02-16T07:01:45;101022.00;;;-0.10;68.84
55757;BME280;41676;44.610;44.078;2023-02-16T07:06:47;100998.41;;;0.07;68.50
55757;BME280;41676;44.610;44.078;2023-02-16T07:11:48;100949.22;;;-0.16;67.16
55757;BME280;41676;44.610;44.078;2023-02-16T07:16:49;101025.13;;;0.28;66.90
55757;BME280;41676;44.610;44.078;2023-02-16T07:21:50;101032.94;;;-0.04;67.29
55757;BME280;41676;44.610;44.078;2023-02-16T07:26:50;101006.59;;;-0.48;67.61
55757;BME280;41676;44.610;44.078;2023-02-16T07:31:51;101024.88;;;-0.15;67.70
55757;BME280;41676;44.610;44.078;2023-02-16T07:36:52;100986.03;;;-0.05;66.84
55757;BME280;41676;44.610;44.078;2023-02-16T07:41:53;100984.00;;;0.16;67.05
55757;BME280;41676;44.610;44.078;2023-02-16T07:46:54;100999.06;;;0.27;67.05
55757;BME280;41676;44.610;44.078;2023-02-16T07:51:55;100950.22;;;-0.03;67.05
55757;BME280;41676;44.610;44.078;2023-02-16T07:56:55;101002.00;;;0.52;66.64
55757;BME280;41676;44.610;44.078;2023-02-16T08:01:56;101014.00;;;0.71;66.43
55757;BME280;41676;44.610;44.078;2023-02-16T08:06:57;100967.66;;;0.12;66.39
55757;BME280;41676;44.610;44.078;2023-02-16T08:11:58;100993.63;;;0.61;65.76
55757;BME280;41676;44.610;44.078;2023-02-16T08:16:58;100939.38;;;0.35;65.08
55757;BME280;41676;44.610;44.078;2023-02-16T08:22:00;101028.44;;;1.08;64.58
55757;BME280;41676;44.610;44.078;2023-02-16T08:27:04;101020.78;;;0.89;65.12
55757;BME280;41676;44.610;44.078;2023-02-16T08:32:05;100989.03;;;0.81;65.13
55757;BME280;41676;44.610;44.078;2023-02-16T08:37:09;100955.28;;;0.46;63.83
55757;BME280;41676;44.610;44.078;2023-02-16T08:42:11;100986.91;;;0.41;64.23
55757;BME280;41676;44.610;44.078;2023-02-16T08:47:13;101015.69;;;1.02;64.14
55757;BME280;41676;44.610;44.078;2023-02-16T08:52:16;100992.81;;;1.20;63.08
55757;BME280;41676;44.610;44.078;2023-02-16T08:57:16;101009.09;;;1.25;63.63
55757;BME280;41676;44.610;44.078;2023-02-16T09:02:18;101013.28;;;1.27;63.67
55757;BME280;41676;44.610;44.078;2023-02-16T09:07:18;100894.72;;;0.54;62.66
55757;BME280;41676;44.610;44.078;2023-02-16T09:12:20;100936.78;;;0.79;61.83
55757;BME280;41676;44.610;44.078;2023-02-16T09:17:21;100958.78;;;0.61;62.30
55757;BME280;41676;44.610;44.078;2023-02-16T09:22:22;101003.00;;;0.80;62.09
55757;BME280;41676;44.610;44.078;2023-02-16T09:27:23;101006.09;;;0.86;62.29
55757;BME280;41676;44.610;44.078;2023-02-16T09:32:30;101003.94;;;1.09;62.44
55757;BME280;41676;44.610;44.078;2023-02-16T09:37:31;100996.66;;;1.28;62.44
55757;BME280;41676;44.610;44.078;2023-02-16T09:47:47;101002.91;;;1.40;61.82
55757;BME280;41676;44.610;44.078;2023-02-16T09:53:06;100965.81;;;1.48;60.75
55757;BME280;41676;44.610;44.078;2023-02-16T09:58:17;101009.03;;;2.11;60.09
55757;BME280;41676;44.610;44.078;2023-02-16T10:08:41;100974.88;;;1.42;59.69
55757;BME280;41676;44.610;44.078;2023-02-16T10:13:48;101000.50;;;1.80;60.13
55757;BME280;41676;44.610;44.078;2023-02-16T10:18:54;101009.25;;;1.93;60.00
55757;BME280;41676;44.610;44.078;2023-02-16T10:24:02;101002.47;;;1.62;60.74
55757;BME280;41676;44.610;44.078;2023-02-16T10:29:07;100989.72;;;1.13;60.92
55757;BME280;41676;44.610;44.078;2023-02-16T10:44:41;100973.44;;;0.94;61.36
55757;BME280;41676;44.610;44.078;2023-02-16T10:49:44;100969.16;;;1.07;61.22
55757;BME280;41676;44.610;44.078;2023-02-16T10:54:47;100973.56;;;1.06;60.96
55757;BME280;41676;44.610;44.078;2023-02-16T10:59:48;100977.47;;;1.13;61.38
55757;BME280;41676;44.610;44.078;2023-02-16T11:04:51;100995.41;;;1.20;60.75
55757;BME280;41676;44.610;44.078;2023-02-16T11:09:55;100979.72;;;1.05;61.07
55757;BME280;41676;44.610;44.078;2023-02-16T11:15:21;100743.69;;;-0.44;60.58
55757;BME280;41676;44.610;44.078;2023-02-16T11:31:13;101006.31;;;1.56;60.17
55757;BME280;41676;44.610;44.078;2023-02-16T11:36:39;101006.75;;;1.77;59.70
55757;BME280;41676;44.610;44.078;2023-02-16T11:42:00;100933.47;;;1.06;59.91
55757;BME280;41676;44.610;44.078;2023-02-16T11:47:08;101004.97;;;1.21;60.44
55757;BME280;41676;44.610;44.078;2023-02-16T11:52:26;100940.56;;;1.04;59.71
55757;BME280;41676;44.610;44.078;2023-02-16T11:57:32;100907.56;;;1.01;60.64
55757;BME280;41676;44.610;44.078;2023-02-16T12:23:34;101078.22;;;1.06;60.84
55757;BME280;41676;44.610;44.078;2023-02-16T12:28:49;101055.19;;;0.67;61.39
55757;BME280;41676;44.610;44.078;2023-02-16T12:44:56;101088.41;;;0.02;62.36
55757;BME280;41676;44.610;44.078;2023-02-16T12:50:07;101000.53;;;-0.49;62.57
55757;BME280;41676;44.610;44.078;2023-02-16T12:55:23;101015.81;;;-0.25;62.73
55757;BME280;41676;44.610;44.078;2023-02-16T13:00:38;101018.53;;;-0.27;62.99
55757;BME280;41676;44.610;44.078;2023-02-16T13:05:41;101080.06;;;-0.05;63.38
55757;BME280;41676;44.610;44.078;2023-02-16T13:10:55;101099.03;;;0.14;63.36
55757;BME280;41676;44.610;44.078;2023-02-16T13:21:11;101110.63;;;-0.40;65.12
55757;BME280;41676;44.610;44.078;2023-02-16T13:26:38;101115.06;;;-0.42;65.45
55757;BME280;41676;44.610;44.078;2023-02-16T13:32:13;101129.38;;;-0.50;65.25
55757;BME280;41676;44.610;44.078;2023-02-16T13:37:21;101130.16;;;-0.65;65.51
55757;BME280;41676;44.610;44.078;2023-02-16T13:47:55;101129.47;;;-0.68;66.34
55757;BME280;41676;44.610;44.078;2023-02-16T13:53:09;101039.28;;;-1.26;66.34
55757;BME280;41676;44.610;44.078;2023-02-16T14:08:25;101143.78;;;-0.95;67.15
55757;BME280;41676;44.610;44.078;2023-02-16T14:13:43;101160.63;;;-1.02;68.20
55757;BME280;41676;44.610;44.078;2023-02-16T14:18:53;101147.22;;;-1.30;67.66
55757;BME280;41676;44.610;44.078;2023-02-16T14:23:56;101144.50;;;-1.46;68.03
55757;BME280;41676;44.610;44.078;2023-02-16T14:34:40;101182.59;;;-1.63;70.02
55757;BME280;41676;44.610;44.078;2023-02-16T14:39:45;101193.03;;;-1.83;69.12
55757;BME280;41676;44.610;44.078;2023-02-16T15:01:20;101221.97;;;-2.10;70.54
55757;BME280;41676;44.610;44.078;2023-02-16T15:06:33;101220.09;;;-2.06;70.45
55757;BME280;41676;44.610;44.078;2023-02-16T15:11:41;101156.19;;;-2.34;69.93
55757;BME280;41676;44.610;44.078;2023-02-16T15:17:05;101235.94;;;-1.71;70.03
55757;BME280;41676;44.610;44.078;2023-02-16T15:22:20;101201.66;;;-1.81;70.92
55757;BME280;41676;44.610;44.078;2023-02-16T15:27:22;101126.69;;;-2.33;70.20
55757;BME280;41676;44.610;44.078;2023-02-16T15:32:23;101114.94;;;-2.43;70.24
55757;BME280;41676;44.610;44.078;2023-02-16T15:37:34;101222.28;;;-1.76;70.98
55757;BME280;41676;44.610;44.078;2023-02-16T15:42:39;101239.34;;;-1.69;70.92
55757;BME280;41676;44.610;44.078;2023-02-16T15:47:41;101237.00;;;-1.75;70.71
55757;BME280;41676;44.610;44.078;2023-02-16T15:52:41;101256.06;;;-1.75;70.13
55757;BME280;41676;44.610;44.078;2023-02-16T15:57:42;101167.53;;;-2.35;70.42
55757;BME280;41676;44.610;44.078;2023-02-16T16:02:47;101250.34;;;-1.83;71.12
55757;BME280;41676;44.610;44.078;2023-02-16T16:07:49;101252.81;;;-1.80;71.21
55757;BME280;41676;44.610;44.078;2023-02-16T16:12:51;101258.41;;;-1.89;71.15
55757;BME280;41676;44.610;44.078;2023-02-16T16:17:54;101243.81;;;-2.12;71.04
55757;BME280;41676;44.610;44.078;2023-02-16T16:23:02;101188.72;;;-2.44;70.94
55757;BME280;41676;44.610;44.078;2023-02-16T16:28:31;101242.66;;;-2.07;70.95
55757;BME280;41676;44.610;44.078;2023-02-16T16:33:52;101249.84;;;-2.12;71.29
55757;BME280;41676;44.610;44.078;2023-02-16T16:50:00;101301.56;;;-2.04;71.86
55757;BME280;41676;44.610;44.078;2023-02-16T16:55:25;101301.44;;;-2.01;71.57
55757;BME280;41676;44.610;44.078;2023-02-16T17:00:30;101299.06;;;-2.05;71.45
55757;BME280;41676;44.610;44.078;2023-02-16T17:05:35;101290.25;;;-2.23;71.36
55757;BME280;41676;44.610;44.078;2023-02-16T17:10:40;101285.16;;;-2.26;71.45
55757;BME280;41676;44.610;44.078;2023-02-16T17:15:54;101313.53;;;-2.20;71.17
55757;BME280;41676;44.610;44.078;2023-02-16T17:20:57;101269.75;;;-2.53;71.59
55757;BME280;41676;44.610;44.078;2023-02-16T17:25:57;101240.53;;;-2.82;71.50
55757;BME280;41676;44.610;44.078;2023-02-16T17:30:58;101323.78;;;-2.38;71.03
55757;BME280;41676;44.610;44.078;2023-02-16T17:36:03;101329.09;;;-2.41;71.84
55757;BME280;41676;44.610;44.078;2023-02-16T17:41:05;101199.41;;;-3.38;71.59
55757;BME280;41676;44.610;44.078;2023-02-16T17:46:06;101340.13;;;-2.56;71.65
55757;BME280;41676;44.610;44.078;2023-02-16T17:51:14;101329.00;;;-2.60;72.18
55757;BME280;41676;44.610;44.078;2023-02-16T17:56:19;101303.34;;;-2.69;71.85
55757;BME280;41676;44.610;44.078;2023-02-16T18:01:21;101316.75;;;-2.58;71.82
55757;BME280;41676;44.610;44.078;2023-02-16T18:06:22;101313.16;;;-2.54;71.72
55757;BME280;41676;44.610;44.078;2023-02-16T18:11:26;101316.34;;;-2.47;71.81
55757;BME280;41676;44.610;44.078;2023-02-16T18:16:26;101319.63;;;-2.42;72.13
55757;BME280;41676;44.610;44.078;2023-02-16T18:21:27;101219.59;;;-2.99;71.65
55757;BME280;41676;44.610;44.078;2023-02-16T18:26:28;101300.00;;;-2.50;72.00
55757;BME280;41676;44.610;44.078;2023-02-16T18:31:33;101287.41;;;-2.61;72.24
55757;BME280;41676;44.610;44.078;2023-02-16T18:36:35;101310.41;;;-2.50;72.34
55757;BME280;41676;44.610;44.078;2023-02-16T18:41:36;101315.91;;;-2.58;73.00
55757;BME280;41676;44.610;44.078;2023-02-16T18:46:37;101314.78;;;-2.51;72.43
55757;BME280;41676;44.610;44.078;2023-02-16T18:51:37;101296.75;;;-2.78;72.56
55757;BME280;41676;44.610;44.078;2023-02-16T18:56:38;101317.34;;;-2.73;72.57
55757;BME280;41676;44.610;44.078;2023-02-16T19:01:40;101319.22;;;-2.77;72.93
55757;BME280;41676;44.610;44.078;2023-02-16T19:06:41;101314.94;;;-2.78;72.73
55757;BME280;41676;44.610;44.078;2023-02-16T19:11:42;101282.97;;;-3.03;72.24
55757;BME280;41676;44.610;44.078;2023-02-16T19:16:44;101181.47;;;-3.68;72.81
55757;BME280;41676;44.610;44.078;2023-02-16T19:21:45;101214.78;;;-3.32;72.82
55757;BME280;41676;44.610;44.078;2023-02-16T19:26:46;101280.69;;;-2.89;72.70
55757;BME280;41676;44.610;44.078;2023-02-16T19:31:47;101283.75;;;-2.78;72.95
55757;BME280;41676;44.610;44.078;2023-02-16T19:36:48;101307.22;;;-2.57;72.79
55757;BME280;41676;44.610;44.078;2023-02-16T19:41:49;101278.06;;;-2.65;72.82
55757;BME280;41676;44.610;44.078;2023-02-16T19:46:50;101307.69;;;-2.47;72.51
55757;BME280;41676;44.610;44.078;2023-02-16T19:51:50;101285.28;;;-2.52;72.61
55757;BME280;41676;44.610;44.078;2023-02-16T19:56:52;101294.59;;;-2.46;72.25
55757;BME280;41676;44.610;44.078;2023-02-16T20:01:53;101283.47;;;-2.49;72.37
55757;BME280;41676;44.610;44.078;2023-02-16T20:06:54;101204.63;;;-2.94;72.44
55757;BME280;41676;44.610;44.078;2023-02-16T20:11:55;101291.75;;;-2.40;72.34
55757;BME280;41676;44.610;44.078;2023-02-16T20:16:56;101131.63;;;-3.32;72.42
55757;BME280;41676;44.610;44.078;2023-02-16T20:21:57;101299.94;;;-2.27;72.62
55757;BME280;41676;44.610;44.078;2023-02-16T20:26:58;101294.00;;;-2.31;72.38
55757;BME280;41676;44.610;44.078;2023-02-16T20:32:03;101248.94;;;-2.53;72.13
55757;BME280;41676;44.610;44.078;2023-02-16T20:37:04;101267.59;;;-2.42;72.42
55757;BME280;41676;44.610;44.078;2023-02-16T20:42:05;101283.69;;;-2.34;73.05
55757;BME280;41676;44.610;44.078;2023-02-16T20:47:06;101261.47;;;-2.41;72.81
55757;BME280;41676;44.610;44.078;2023-02-16T20:52:09;101233.34;;;-2.53;73.03
55757;BME280;41676;44.610;44.078;2023-02-16T20:57:10;101238.22;;;-2.45;72.75
55757;BME280;41676;44.610;44.078;2023-02-16T21:02:11;101279.25;;;-2.30;72.95
55757;BME280;41676;44.610;44.078;2023-02-16T21:07:11;101265.81;;;-2.41;72.88
55757;BME280;41676;44.610;44.078;2023-02-16T21:12:12;101274.34;;;-2.38;73.01
55757;BME280;41676;44.610;44.078;2023-02-16T21:17:13;101217.81;;;-2.77;72.77
55757;BME280;41676;44.610;44.078;2023-02-16T21:22:14;101262.25;;;-2.39;73.40
55757;BME280;41676;44.610;44.078;2023-02-16T21:27:15;101261.72;;;-2.47;73.09
55757;BME280;41676;44.610;44.078;2023-02-16T21:32:16;101185.66;;;-2.96;72.86
55757;BME280;41676;44.610;44.078;2023-02-16T21:37:17;101187.47;;;-2.98;73.37
55757;BME280;41676;44.610;44.078;2023-02-16T21:42:18;101260.44;;;-2.59;74.21
55757;BME280;41676;44.610;44.078;2023-02-16T21:47:19;101236.81;;;-2.74;73.89
55757;BME280;41676;44.610;44.078;2023-02-16T21:52:38;101234.97;;;-2.72;73.98
55757;BME280;41676;44.610;44.078;2023-02-16T21:57:39;101164.13;;;-3.22;73.53
55757;BME280;41676;44.610;44.078;2023-02-16T22:02:40;101277.63;;;-2.55;73.09
55757;BME280;41676;44.610;44.078;2023-02-16T22:07:41;101267.22;;;-2.77;72.83
55757;BME280;41676;44.610;44.078;2023-02-16T22:12:42;101270.91;;;-2.82;73.04
55757;BME280;41676;44.610;44.078;2023-02-16T22:17:42;101290.50;;;-2.73;72.74
55757;BME280;41676;44.610;44.078;2023-02-16T22:22:44;101271.03;;;-2.85;72.88
55757;BME280;41676;44.610;44.078;2023-02-16T22:27:45;101285.78;;;-2.64;73.14
55757;BME280;41676;44.610;44.078;2023-02-16T22:32:48;101293.28;;;-2.56;73.45
55757;BME280;41676;44.610;44.078;2023-02-16T22:37:49;101280.16;;;-2.53;73.12
55757;BME280;41676;44.610;44.078;2023-02-16T22:42:50;101286.81;;;-2.46;73.16
55757;BME280;41676;44.610;44.078;2023-02-16T22:47:51;101268.78;;;-2.50;72.87
55757;BME280;41676;44.610;44.078;2023-02-16T22:52:52;101259.13;;;-2.69;72.92
55757;BME280;41676;44.610;44.078;2023-02-16T22:57:53;101256.38;;;-2.88;73.55
55757;BME280;41676;44.610;44.078;2023-02-16T23:02:54;101185.38;;;-3.56;73.39
55757;BME280;41676;44.610;44.078;2023-02-16T23:07:54;101299.19;;;-2.96;73.38
55757;BME280;41676;44.610;44.078;2023-02-16T23:12:55;101189.81;;;-3.59;73.92
55757;BME280;41676;44.610;44.078;2023-02-16T23:17:56;101208.81;;;-3.35;73.34
55757;BME280;41676;44.610;44.078;2023-02-16T23:22:57;101299.03;;;-2.92;73.88
55757;BME280;41676;44.610;44.078;2023-02-16T23:27:59;101287.91;;;-2.95;73.86
55757;BME280;41676;44.610;44.078;2023-02-16T23:33:00;101286.03;;;-2.92;74.24
55757;BME280;41676;44.610;44.078;2023-02-16T23:38:01;101203.22;;;-3.47;73.72
55757;BME280;41676;44.610;44.078;2023-02-16T23:43:03;101296.66;;;-2.98;74.29
55757;BME280;41676;44.610;44.078;2023-02-16T23:48:04;101272.81;;;-3.09;74.26
55757;BME280;41676;44.610;44.078;2023-02-16T23:53:05;101305.03;;;-2.90;74.49
55757;BME280;41676;44.610;44.078;2023-02-16T23:58:06;101258.97;;;-3.33;75.22
